createdAt,value
2018-12-12T00:01:03.792Z,45.50
2018-12-12T00:03:31.304Z,52.43
2018-12-12T00:06:00.175Z,49.57
2018-12-12T00:08:27.664Z,53.37
2018-12-12T00:10:55.214Z,63.67
2018-12-12T00:13:22.615Z,60.77
2018-12-12T00:15:50.200Z,65.10
2018-12-12T00:18:17.740Z,59.20
2018-12-12T00:20:45.169Z,52.00
2018-12-12T00:23:12.593Z,53.50
2018-12-12T00:25:40.020Z,57.53
2018-12-12T00:28:07.472Z,56.23
2018-12-12T00:30:34.937Z,58.60
2018-12-12T00:33:02.348Z,61.80
2018-12-12T00:35:29.785Z,49.20
2018-12-12T00:37:57.588Z,69.53
2018-12-12T00:40:25.020Z,58.87
2018-12-12T00:42:52.412Z,62.87
2018-12-12T00:45:19.852Z,62.73
2018-12-12T00:47:47.281Z,49.80
2018-12-12T00:50:14.680Z,58.73
2018-12-12T00:52:42.113Z,56.60
2018-12-12T00:55:09.525Z,54.40
2018-12-12T00:57:37.396Z,57.47
2018-12-12T01:00:05.051Z,50.97
2018-12-12T01:02:32.472Z,59.30
2018-12-12T01:04:59.881Z,54.93
2018-12-12T01:07:27.312Z,50.17
2018-12-12T01:09:54.717Z,59.20
2018-12-12T01:12:22.288Z,66.07
2018-12-12T01:14:49.836Z,65.07
2018-12-12T01:17:17.293Z,70.83
2018-12-12T01:19:44.729Z,70.20
2018-12-12T01:22:12.283Z,69.53
2018-12-12T01:24:39.677Z,59.53
2018-12-12T01:27:07.173Z,70.43
2018-12-12T01:29:34.634Z,69.33
2018-12-12T01:32:02.047Z,59.23
2018-12-12T01:34:29.427Z,57.67
2018-12-12T01:36:57.272Z,49.27
2018-12-12T01:39:24.680Z,50.13
2018-12-12T01:41:52.121Z,51.13
2018-12-12T01:44:19.624Z,48.73
2018-12-12T01:46:47.064Z,52.37
2018-12-12T01:49:14.464Z,54.47
2018-12-12T01:51:41.880Z,55.50
2018-12-12T01:54:09.264Z,57.30
2018-12-12T01:56:36.683Z,64.03
2018-12-12T01:59:04.085Z,56.70
2018-12-12T02:01:31.507Z,52.57
2018-12-12T02:03:58.905Z,60.33
2018-12-12T02:06:26.352Z,61.53
2018-12-12T02:08:53.764Z,69.10
2018-12-12T02:11:21.302Z,74.00
2018-12-12T02:13:48.730Z,67.97
2018-12-12T02:16:16.376Z,63.70
2018-12-12T02:18:45.475Z,62.17
2018-12-12T02:21:12.934Z,77.00
2018-12-12T02:23:40.547Z,58.30
2018-12-12T02:26:08.091Z,59.53
2018-12-12T02:28:35.520Z,64.30
2018-12-12T02:31:03.092Z,61.37
2018-12-12T02:33:30.537Z,56.30
2018-12-12T02:35:58.050Z,72.77
2018-12-12T02:38:25.442Z,68.60
2018-12-12T02:40:52.891Z,60.67
2018-12-12T02:43:20.282Z,64.47
2018-12-12T02:45:47.683Z,61.33
2018-12-12T02:48:15.454Z,72.87
2018-12-12T02:50:43.045Z,80.27
2018-12-12T02:53:10.619Z,60.77
2018-12-12T02:55:38.030Z,63.83
2018-12-12T02:58:05.470Z,62.57
2018-12-12T03:00:32.869Z,60.40
2018-12-12T03:03:00.292Z,64.03
2018-12-12T03:05:27.707Z,57.23
2018-12-12T03:07:55.131Z,55.40
2018-12-12T03:10:22.560Z,48.77
2018-12-12T03:12:49.959Z,71.77
2018-12-12T03:15:17.383Z,62.77
2018-12-12T03:17:44.922Z,104.97
2018-12-12T03:20:12.453Z,95.63
2018-12-12T03:22:39.865Z,134.03
2018-12-12T03:25:07.312Z,101.90
2018-12-12T03:27:34.717Z,184.20
2018-12-12T03:30:02.435Z,191.37
2018-12-12T03:32:30.049Z,108.80
2018-12-12T03:34:57.532Z,95.67
2018-12-12T03:37:24.946Z,232.03
2018-12-12T03:39:52.383Z,106.03
2018-12-12T03:42:19.792Z,181.27
2018-12-12T03:44:47.212Z,206.77
2018-12-12T03:47:14.640Z,237.57
2018-12-12T03:49:42.044Z,230.50
2018-12-12T03:52:09.481Z,244.20
2018-12-12T03:54:36.885Z,172.20
2018-12-12T03:57:04.315Z,142.20
2018-12-12T03:59:31.725Z,157.47
2018-12-12T04:01:59.276Z,137.30
2018-12-12T04:04:26.699Z,138.40
2018-12-12T04:06:54.271Z,140.73
2018-12-12T04:09:21.694Z,160.70
2018-12-12T04:11:49.115Z,150.10
2018-12-12T04:14:16.512Z,126.93
2018-12-12T04:16:43.936Z,237.97
2018-12-12T04:19:11.576Z,188.63
2018-12-12T04:21:39.044Z,164.53
2018-12-12T04:24:06.472Z,222.17
2018-12-12T04:26:33.904Z,180.73
2018-12-12T04:29:01.311Z,107.93
2018-12-12T04:31:28.742Z,112.87
2018-12-12T04:33:56.154Z,202.50
2018-12-12T04:36:23.741Z,190.30
2018-12-12T04:38:51.223Z,215.23
2018-12-12T04:41:18.676Z,279.43
2018-12-12T04:43:46.096Z,168.57
2018-12-12T04:46:13.523Z,125.83
2018-12-12T04:48:40.924Z,153.07
2018-12-12T04:51:08.353Z,241.40
2018-12-12T04:53:35.766Z,269.80
2018-12-12T04:56:03.330Z,176.67
2018-12-12T04:58:30.836Z,157.17
2018-12-12T05:00:58.276Z,189.33
2018-12-12T05:03:25.667Z,221.90
2018-12-12T05:05:53.131Z,183.57
2018-12-12T05:08:20.579Z,195.63
2018-12-12T05:10:47.992Z,171.10
2018-12-12T05:13:22.214Z,177.00
2018-12-12T05:15:49.608Z,185.70
2018-12-12T05:18:17.756Z,342.43
2018-12-12T05:20:45.219Z,209.73
2018-12-12T05:23:12.649Z,394.13
2018-12-12T05:25:40.032Z,202.77
2018-12-12T05:28:07.451Z,402.13
2018-12-12T05:30:34.862Z,178.60
2018-12-12T05:33:02.287Z,225.90
2018-12-12T05:35:29.693Z,249.33
2018-12-12T05:38:04.365Z,296.87
2018-12-12T05:40:32.095Z,301.23
2018-12-12T05:42:59.548Z,224.07
2018-12-12T05:45:27.305Z,233.37
2018-12-12T05:47:55.317Z,273.27
2018-12-12T05:50:22.731Z,273.77
2018-12-12T05:52:50.157Z,206.83
2018-12-12T05:55:17.564Z,724.00
2018-12-12T05:57:47.309Z,330.57
2018-12-12T06:00:14.908Z,215.63
2018-12-12T06:02:42.360Z,209.63
2018-12-12T06:05:09.799Z,236.13
2018-12-12T06:07:37.200Z,271.00
2018-12-12T06:10:05.770Z,281.73
2018-12-12T06:12:33.192Z,336.73
2018-12-12T06:15:00.789Z,255.23
2018-12-12T06:17:28.196Z,320.63
2018-12-12T06:19:55.967Z,377.33
2018-12-12T06:22:23.712Z,383.73
2018-12-12T06:24:51.156Z,247.20
2018-12-12T06:27:18.570Z,358.83
2018-12-12T06:29:46.061Z,387.50
2018-12-12T06:32:13.477Z,463.37
2018-12-12T06:34:41.189Z,213.30
2018-12-12T06:37:08.858Z,324.53
2018-12-12T06:39:36.309Z,478.57
2018-12-12T06:42:03.839Z,509.47
2018-12-12T06:44:31.296Z,450.30
2018-12-12T06:46:58.700Z,353.60
2018-12-12T06:49:26.136Z,515.77
2018-12-12T06:51:53.677Z,272.77
2018-12-12T06:54:21.077Z,562.27
2018-12-12T06:56:48.515Z,394.17
2018-12-12T06:59:15.937Z,280.53
2018-12-12T07:01:43.578Z,157.17
2018-12-12T07:04:10.988Z,251.90
2018-12-12T07:06:38.416Z,242.43
2018-12-12T07:09:07.998Z,212.40
2018-12-12T07:11:35.578Z,338.13
2018-12-12T07:14:09.656Z,102.97
2018-12-12T07:16:37.118Z,203.67
2018-12-12T07:19:04.545Z,324.33
2018-12-12T07:21:31.987Z,314.63
2018-12-12T07:23:59.420Z,154.27
2018-12-12T07:26:26.861Z,253.03
2018-12-12T07:28:54.260Z,111.77
2018-12-12T07:31:21.701Z,110.07
2018-12-12T07:33:49.227Z,95.07
2018-12-12T07:36:16.655Z,68.33
2018-12-12T07:38:44.110Z,81.67
2018-12-12T07:41:11.666Z,73.60
2018-12-12T07:43:39.088Z,73.63
2018-12-12T07:46:06.833Z,91.80
2018-12-12T07:48:34.269Z,66.20
2018-12-12T07:51:01.707Z,69.83
2018-12-12T07:53:29.130Z,66.30
2018-12-12T07:55:56.573Z,53.70
2018-12-12T07:58:24.036Z,45.37
2018-12-12T08:00:51.584Z,53.50
2018-12-12T08:03:19.171Z,67.63
2018-12-12T08:05:46.591Z,73.67
2018-12-12T08:08:14.058Z,109.73
2018-12-12T08:10:41.530Z,45.47
2018-12-12T08:13:09.020Z,66.87
2018-12-12T08:15:36.421Z,68.30
2018-12-12T08:18:03.985Z,94.10
2018-12-12T08:20:31.400Z,152.93
2018-12-12T08:22:59.056Z,200.73
2018-12-12T08:25:26.858Z,93.43
2018-12-12T08:27:54.276Z,116.50
2018-12-12T08:30:21.696Z,181.57
2018-12-12T08:32:49.113Z,64.63
2018-12-12T08:35:16.553Z,90.07
2018-12-12T08:37:43.975Z,270.97
2018-12-12T08:40:18.144Z,130.13
2018-12-12T08:42:45.555Z,177.73
2018-12-12T08:45:13.025Z,370.47
2018-12-12T08:47:40.444Z,215.73
2018-12-12T08:50:08.207Z,141.13
2018-12-12T08:52:35.614Z,224.37
2018-12-12T08:55:03.704Z,562.53
2018-12-12T08:57:31.263Z,227.33
2018-12-12T09:00:05.376Z,191.03
2018-12-12T09:02:32.777Z,166.90
2018-12-12T09:05:00.223Z,296.10
2018-12-12T09:07:27.629Z,239.73
2018-12-12T09:09:55.077Z,458.53
2018-12-12T09:12:22.488Z,271.40
2018-12-12T09:14:49.923Z,421.13
2018-12-12T09:17:17.336Z,450.27
2018-12-12T09:19:44.780Z,311.87
2018-12-12T09:22:12.171Z,177.47
2018-12-12T09:24:39.609Z,154.37
2018-12-12T09:27:07.040Z,100.67
2018-12-12T09:29:34.444Z,266.77
2018-12-12T09:32:01.854Z,105.80
2018-12-12T09:34:29.268Z,202.73
2018-12-12T09:36:56.652Z,160.57
2018-12-12T09:39:24.113Z,170.00
2018-12-12T09:41:51.580Z,196.50
2018-12-12T09:44:19.129Z,234.63
2018-12-12T09:46:46.539Z,170.60
2018-12-12T09:49:13.925Z,136.20
2018-12-12T09:51:41.331Z,121.60
2018-12-12T09:54:08.727Z,216.33
2018-12-12T09:56:36.143Z,130.13
2018-12-12T09:59:03.668Z,189.43
2018-12-12T10:01:31.204Z,137.50
2018-12-12T10:03:58.603Z,105.53
2018-12-12T10:06:26.147Z,103.27
2018-12-12T10:08:53.569Z,141.00
2018-12-12T10:11:20.991Z,127.40
2018-12-12T10:13:48.382Z,189.83
2018-12-12T10:16:15.932Z,139.73
2018-12-12T10:18:43.333Z,124.70
2018-12-12T10:21:10.884Z,177.67
2018-12-12T10:23:38.276Z,97.17
2018-12-12T10:26:05.827Z,174.93
2018-12-12T10:28:33.225Z,416.77
2018-12-12T10:31:00.686Z,189.53
2018-12-12T10:33:28.072Z,219.20
2018-12-12T10:35:55.480Z,168.47
2018-12-12T10:38:22.876Z,61.30
2018-12-12T10:40:50.290Z,333.27
2018-12-12T10:43:17.683Z,98.50
2018-12-12T10:45:45.272Z,295.03
2018-12-12T10:48:12.668Z,179.87
2018-12-12T10:50:40.096Z,63.40
2018-12-12T10:53:07.493Z,123.57
2018-12-12T10:55:34.901Z,97.43
2018-12-12T10:58:02.405Z,68.43
2018-12-12T11:00:29.825Z,115.87
2018-12-12T11:03:02.814Z,71.53
2018-12-12T11:05:30.364Z,66.57
2018-12-12T11:07:57.764Z,59.47
2018-12-12T11:10:25.952Z,63.40
2018-12-12T11:12:53.453Z,50.90
2018-12-12T11:15:20.948Z,90.57
2018-12-12T11:17:48.388Z,81.50
2018-12-12T11:21:19.501Z,55.70
2018-12-12T11:23:46.924Z,246.70
2018-12-12T11:26:14.529Z,80.90
2018-12-12T11:28:42.043Z,45.03
2018-12-12T11:31:10.515Z,116.07
2018-12-12T11:33:37.924Z,54.93
2018-12-12T11:36:05.499Z,51.87
2018-12-12T11:38:32.896Z,61.77
2018-12-12T11:41:00.308Z,98.03
2018-12-12T11:43:27.729Z,47.87
2018-12-12T11:45:55.140Z,43.90
2018-12-12T11:48:22.535Z,42.37
2018-12-12T11:50:50.069Z,46.90
2018-12-12T11:53:17.498Z,40.97
2018-12-12T11:55:44.961Z,46.47
2018-12-12T11:58:12.371Z,40.53
2018-12-12T12:00:39.880Z,37.23
2018-12-12T12:03:07.333Z,30.57
2018-12-12T12:05:34.743Z,32.70
2018-12-12T12:08:02.193Z,33.10
2018-12-12T12:10:29.624Z,32.70
2018-12-12T12:12:57.118Z,35.53
2018-12-12T12:15:24.537Z,35.07
2018-12-12T12:17:51.976Z,36.73
2018-12-12T12:20:19.396Z,35.00
2018-12-12T12:22:46.833Z,32.00
2018-12-12T12:25:14.242Z,30.07
2018-12-12T12:27:41.660Z,31.07
2018-12-12T12:30:09.203Z,33.43
2018-12-12T12:32:36.640Z,31.67
2018-12-12T12:35:04.436Z,31.83
2018-12-12T12:37:31.868Z,30.63
2018-12-12T12:39:59.265Z,20.47
2018-12-12T12:42:26.694Z,22.90
2018-12-12T12:44:54.098Z,28.33
2018-12-12T12:47:21.519Z,26.67
2018-12-12T12:49:48.933Z,22.73
2018-12-12T12:52:16.375Z,21.77
2018-12-12T12:54:43.768Z,15.00
2018-12-12T12:57:11.236Z,9.93
2018-12-12T12:59:38.655Z,11.73
2018-12-12T13:02:06.199Z,11.27
2018-12-12T13:04:33.611Z,11.00
2018-12-12T13:07:01.075Z,13.67
2018-12-12T13:09:28.523Z,10.70
2018-12-12T13:11:55.975Z,11.83
2018-12-12T13:14:23.664Z,9.57
2018-12-12T13:16:51.059Z,10.90
2018-12-12T13:19:18.690Z,8.47
2018-12-12T13:21:46.188Z,9.43
2018-12-12T13:24:13.670Z,12.20
2018-12-12T13:26:41.060Z,11.87
2018-12-12T13:29:08.509Z,10.07
2018-12-12T13:31:35.908Z,12.87
2018-12-12T13:34:03.451Z,9.03
2018-12-12T13:36:30.859Z,8.87
2018-12-12T13:38:58.292Z,7.97
2018-12-12T13:41:25.697Z,9.27
2018-12-12T13:43:53.151Z,9.73
2018-12-12T13:46:20.689Z,11.80
2018-12-12T13:48:48.114Z,10.30
2018-12-12T13:51:15.524Z,11.33
2018-12-12T13:53:43.008Z,12.93
2018-12-12T13:56:10.420Z,12.67
2018-12-12T13:58:37.897Z,19.10
2018-12-12T14:01:05.480Z,9.70
2018-12-12T14:03:32.943Z,11.53
2018-12-12T14:06:00.372Z,12.80
2018-12-12T14:08:27.851Z,14.20
2018-12-12T14:10:55.374Z,9.87
2018-12-12T14:13:22.848Z,10.87
2018-12-12T14:15:50.268Z,9.80
2018-12-12T14:18:17.730Z,9.50
2018-12-12T14:20:45.164Z,9.20
2018-12-12T14:23:12.620Z,10.07
2018-12-12T14:25:40.047Z,8.70
2018-12-12T14:28:07.504Z,9.97
2018-12-12T14:30:34.927Z,11.13
2018-12-12T14:33:02.448Z,10.60
2018-12-12T14:35:29.890Z,12.57
2018-12-12T14:37:57.317Z,12.00
2018-12-12T14:40:24.775Z,10.33
2018-12-12T14:42:52.223Z,12.87
2018-12-12T14:45:19.707Z,14.73
2018-12-12T14:47:47.148Z,11.30
2018-12-12T14:50:17.065Z,12.23
2018-12-12T14:52:44.594Z,12.83
2018-12-12T14:55:12.023Z,15.87
2018-12-12T14:57:39.428Z,14.20
2018-12-12T15:00:07.075Z,13.07
2018-12-12T15:02:34.551Z,9.93
2018-12-12T15:05:02.164Z,12.60
2018-12-12T15:07:29.582Z,12.03
2018-12-12T15:09:57.042Z,10.60
2018-12-12T15:12:24.448Z,7.37
2018-12-12T15:14:51.921Z,9.93
2018-12-12T15:17:19.355Z,7.03
2018-12-12T15:19:46.801Z,8.73
2018-12-12T15:22:14.362Z,7.83
2018-12-12T15:24:41.850Z,8.20
2018-12-12T15:27:09.329Z,9.20
2018-12-12T15:29:36.802Z,8.73
2018-12-12T15:32:04.277Z,8.67
2018-12-12T15:34:31.725Z,10.00
2018-12-12T15:36:59.155Z,9.03
2018-12-12T15:39:33.471Z,9.37
2018-12-12T15:42:00.895Z,9.27
2018-12-12T15:44:28.400Z,20.47
2018-12-12T15:46:55.877Z,14.63
2018-12-12T15:49:23.357Z,15.30
2018-12-12T15:51:50.766Z,17.17
2018-12-12T15:54:18.305Z,15.83
2018-12-12T15:56:45.770Z,16.63
2018-12-12T15:59:13.232Z,12.03
2018-12-12T16:01:41.067Z,14.80
2018-12-12T16:04:08.570Z,11.60
2018-12-12T16:06:36.033Z,12.80
2018-12-12T16:09:05.620Z,13.83
2018-12-12T16:11:33.101Z,12.23
2018-12-12T16:14:00.509Z,13.27
2018-12-12T16:16:28.088Z,12.97
2018-12-12T16:18:55.482Z,17.07
2018-12-12T16:21:23.059Z,18.30
2018-12-12T16:23:50.472Z,20.83
2018-12-12T16:26:17.943Z,16.87
2018-12-12T16:28:45.514Z,15.27
2018-12-12T16:31:12.997Z,15.57
2018-12-12T16:33:40.610Z,16.27
2018-12-12T16:36:08.092Z,18.33
2018-12-12T16:38:35.528Z,20.67
2018-12-12T16:41:03.022Z,17.97
2018-12-12T16:44:55.949Z,17.83
2018-12-12T16:47:23.353Z,19.13
2018-12-12T16:49:50.843Z,19.20
2018-12-12T16:52:18.255Z,15.30
2018-12-12T16:54:45.720Z,19.27
2018-12-12T16:57:13.107Z,19.63
2018-12-12T16:59:40.667Z,18.73
2018-12-12T17:02:08.143Z,19.67
2018-12-12T17:04:35.722Z,20.97
2018-12-12T17:07:03.191Z,25.07
2018-12-12T17:09:30.710Z,30.53
2018-12-12T17:11:58.149Z,40.00
2018-12-12T17:14:26.531Z,36.07
2018-12-12T17:16:54.139Z,36.47
2018-12-12T17:19:21.523Z,29.97
2018-12-12T17:21:49.021Z,22.80
2018-12-12T17:24:16.535Z,19.70
2018-12-12T17:26:43.996Z,20.13
2018-12-12T17:29:11.445Z,20.37
2018-12-12T17:31:39.319Z,21.03
2018-12-12T17:34:13.476Z,22.97
2018-12-12T17:36:40.921Z,18.60
2018-12-12T17:39:08.319Z,17.90
2018-12-12T17:41:35.801Z,14.03
2018-12-12T17:44:04.863Z,16.13
2018-12-12T17:46:32.668Z,18.53
2018-12-12T17:49:00.153Z,21.50
2018-12-12T17:51:27.698Z,18.57
2018-12-12T17:53:55.145Z,19.53
2018-12-12T17:56:22.654Z,17.43
2018-12-12T17:58:50.186Z,21.60
2018-12-12T18:01:17.882Z,23.03
2018-12-12T18:03:45.328Z,23.57
2018-12-12T18:06:12.875Z,22.97
2018-12-12T18:08:40.360Z,23.20
2018-12-12T18:11:07.824Z,21.67
2018-12-12T18:13:35.237Z,23.30
2018-12-12T18:16:02.721Z,22.87
2018-12-12T18:18:30.121Z,19.47
2018-12-12T18:20:57.572Z,35.50
2018-12-12T18:23:24.984Z,25.07
2018-12-12T18:25:52.590Z,28.37
2018-12-12T18:28:19.999Z,36.57
2018-12-12T18:30:47.481Z,31.63
2018-12-12T18:33:14.898Z,37.17
2018-12-12T18:35:42.377Z,34.00
2018-12-12T18:38:09.805Z,25.27
2018-12-12T18:40:37.284Z,56.93
2018-12-12T18:43:05.313Z,26.37
2018-12-12T18:45:32.925Z,41.07
2018-12-12T18:48:00.386Z,16.90
2018-12-12T18:50:27.885Z,13.20
2018-12-12T18:52:55.345Z,14.00
2018-12-12T18:55:22.884Z,14.20
2018-12-12T18:57:50.367Z,18.17
2018-12-12T19:00:17.918Z,17.23
2018-12-12T19:02:45.409Z,14.67
2018-12-12T19:05:12.893Z,15.57
2018-12-12T19:07:40.430Z,13.40
2018-12-12T19:10:08.317Z,11.27
2018-12-12T19:12:35.853Z,13.37
2018-12-12T19:15:04.839Z,11.50
2018-12-12T19:17:32.375Z,11.37
2018-12-12T19:19:59.847Z,12.27
2018-12-12T19:22:27.492Z,10.20
2018-12-12T19:24:54.961Z,12.37
2018-12-12T19:27:22.484Z,10.60
2018-12-12T19:29:49.941Z,10.27
2018-12-12T19:32:17.516Z,11.00
2018-12-12T19:34:49.839Z,10.03
2018-12-12T19:37:14.624Z,10.97
2018-12-12T19:39:42.079Z,11.13
2018-12-12T19:42:09.646Z,13.37
2018-12-12T19:44:37.144Z,12.83
2018-12-12T19:47:04.740Z,12.83
2018-12-12T19:49:32.288Z,12.40
2018-12-12T19:51:59.865Z,11.53
2018-12-12T19:54:27.361Z,12.03
2018-12-12T19:56:55.069Z,47.80
2018-12-12T19:59:22.558Z,20.13
2018-12-12T20:01:50.141Z,79.43
2018-12-12T20:04:17.689Z,75.43
2018-12-12T20:06:45.237Z,37.77
2018-12-12T20:09:13.128Z,106.37
2018-12-12T20:11:40.994Z,22.70
2018-12-12T20:14:08.474Z,22.53
2018-12-12T20:16:36.009Z,28.43
2018-12-12T20:19:03.485Z,25.57
2018-12-12T20:21:31.024Z,14.00
2018-12-12T20:23:58.499Z,12.20
2018-12-12T20:26:27.079Z,9.97
2018-12-12T20:28:54.572Z,11.97
2018-12-12T20:31:22.109Z,10.33
2018-12-12T20:33:49.581Z,10.70
2018-12-12T20:36:17.108Z,11.67
2018-12-12T20:38:44.587Z,12.17
2018-12-12T20:41:12.824Z,11.07
2018-12-12T20:43:40.217Z,11.33
2018-12-12T20:46:07.692Z,11.50
2018-12-12T20:48:35.100Z,11.53
2018-12-12T20:51:02.555Z,10.67
2018-12-12T20:53:29.964Z,15.93
2018-12-12T20:55:57.412Z,21.73
2018-12-12T20:58:24.828Z,10.63
2018-12-12T21:00:52.224Z,11.53
2018-12-12T21:03:19.740Z,9.73
2018-12-12T21:05:47.163Z,10.10
2018-12-12T21:08:14.739Z,8.10
2018-12-12T21:10:42.136Z,10.63
2018-12-12T21:13:09.585Z,9.93
2018-12-12T21:15:37.009Z,8.83
2018-12-12T21:18:04.479Z,11.07
2018-12-12T21:20:32.040Z,11.23
2018-12-12T21:22:59.478Z,7.73
2018-12-12T21:25:29.783Z,7.50
2018-12-12T21:27:57.230Z,9.90
2018-12-12T21:30:24.637Z,9.17
2018-12-12T21:32:52.080Z,8.50
2018-12-12T21:35:19.484Z,10.90
2018-12-12T21:37:46.952Z,9.60
2018-12-12T21:40:14.492Z,9.23
2018-12-12T21:42:41.947Z,11.90
2018-12-12T21:45:09.587Z,9.10
2018-12-12T21:47:37.040Z,9.27
2018-12-12T21:50:05.024Z,11.50
2018-12-12T21:52:32.453Z,9.27
2018-12-12T21:54:59.857Z,9.77
2018-12-12T21:57:27.349Z,9.03
2018-12-12T21:59:54.824Z,8.40
2018-12-12T22:02:22.360Z,9.27
2018-12-12T22:04:49.752Z,8.33
2018-12-12T22:07:17.159Z,8.60
2018-12-12T22:09:44.545Z,9.23
2018-12-12T22:12:11.972Z,8.80
2018-12-12T22:14:39.365Z,8.53
2018-12-12T22:17:06.793Z,10.57
2018-12-12T22:19:34.191Z,9.33
2018-12-12T22:22:01.623Z,8.30
2018-12-12T22:24:29.021Z,8.47
2018-12-12T22:26:56.443Z,8.93
2018-12-12T22:29:23.846Z,8.60
2018-12-12T22:31:51.261Z,9.43
2018-12-12T22:34:18.648Z,9.97
2018-12-12T22:36:46.900Z,8.20
2018-12-12T22:39:14.296Z,9.00
2018-12-12T22:41:41.711Z,7.57
2018-12-12T22:44:09.103Z,8.97
2018-12-12T22:46:36.536Z,8.80
2018-12-12T22:49:03.937Z,7.90
2018-12-12T22:51:31.424Z,7.97
2018-12-12T22:53:58.850Z,8.90
2018-12-12T22:56:26.260Z,7.83
2018-12-12T22:58:53.727Z,10.00
2018-12-12T23:01:23.301Z,7.87
2018-12-12T23:03:50.860Z,7.50
2018-12-12T23:06:20.494Z,10.30
2018-12-12T23:08:47.756Z,11.53
2018-12-12T23:11:15.205Z,9.13
2018-12-12T23:13:42.800Z,8.97
2018-12-12T23:16:10.310Z,9.20
2018-12-12T23:18:38.608Z,8.07
2018-12-12T23:21:05.992Z,12.27
2018-12-12T23:23:33.453Z,9.40
2018-12-12T23:26:00.848Z,9.00
2018-12-12T23:28:28.269Z,7.50
2018-12-12T23:30:55.669Z,9.80
2018-12-12T23:33:24.026Z,10.77
2018-12-12T23:35:51.626Z,7.53
2018-12-12T23:38:19.048Z,8.63
2018-12-12T23:40:46.484Z,8.63
2018-12-12T23:43:13.887Z,8.30
2018-12-12T23:45:41.299Z,8.00
2018-12-12T23:48:08.803Z,8.00
2018-12-12T23:50:36.184Z,11.00
2018-12-12T23:53:03.611Z,9.20
2018-12-12T23:55:31.075Z,9.40
2018-12-12T23:57:58.492Z,9.47
